createdAt,value
2023-03-22T00:00:17.663Z,12.98
2023-03-22T00:02:44.725Z,12.45
2023-03-22T00:05:11.532Z,12.65
2023-03-22T00:07:38.560Z,14.82
2023-03-22T00:10:06.340Z,14.25
2023-03-22T00:12:33.162Z,15.20
2023-03-22T00:15:00.387Z,14.75
2023-03-22T00:17:27.339Z,15.75
2023-03-22T00:19:58.547Z,16.13
2023-03-22T00:22:25.839Z,15.10
2023-03-22T00:24:52.628Z,17.08
2023-03-22T00:27:19.570Z,16.65
2023-03-22T00:29:46.466Z,15.93
2023-03-22T00:32:13.348Z,15.90
2023-03-22T00:34:40.413Z,18.23
2023-03-22T00:37:08.213Z,16.65
2023-03-22T00:39:35.186Z,19.25
2023-03-22T00:42:05.057Z,16.63
2023-03-22T00:44:32.525Z,18.38
2023-03-22T00:46:59.352Z,16.25
2023-03-22T00:49:27.361Z,17.02
2023-03-22T00:51:54.962Z,16.45
2023-03-22T00:54:21.874Z,16.65
2023-03-22T00:56:50.032Z,18.42
2023-03-22T00:59:17.319Z,20.25
2023-03-22T01:01:44.348Z,21.98
2023-03-22T01:04:15.559Z,24.23
2023-03-22T01:06:42.541Z,23.65
2023-03-22T01:09:15.401Z,24.10
2023-03-22T01:11:43.638Z,23.02
2023-03-22T01:14:14.078Z,21.48
2023-03-22T01:16:41.112Z,21.77
2023-03-22T01:19:08.690Z,21.17
2023-03-22T01:21:35.704Z,21.00
2023-03-22T01:24:02.941Z,21.83
2023-03-22T01:26:29.847Z,21.63
2023-03-22T01:28:57.609Z,22.17
2023-03-22T01:31:24.965Z,24.77
2023-03-22T01:33:51.786Z,23.88
2023-03-22T01:36:20.589Z,27.48
2023-03-22T01:38:47.393Z,30.38
2023-03-22T01:41:17.215Z,32.92
2023-03-22T01:43:44.746Z,33.80
2023-03-22T01:46:12.219Z,35.10
2023-03-22T01:48:46.077Z,37.05
2023-03-22T01:51:24.308Z,36.63
2023-03-22T01:54:18.667Z,34.97
2023-03-22T01:56:47.310Z,36.05
2023-03-22T01:59:22.954Z,35.00
2023-03-22T02:02:08.140Z,36.55
2023-03-22T02:04:39.383Z,36.30
2023-03-22T02:07:15.387Z,34.20
2023-03-22T02:09:44.111Z,35.28
2023-03-22T02:12:50.823Z,35.00
2023-03-22T02:15:43.629Z,35.42
2023-03-22T02:19:00.758Z,35.10
2023-03-22T02:22:03.229Z,36.45
2023-03-22T02:24:32.973Z,36.30
2023-03-22T02:27:18.664Z,36.53
2023-03-22T02:30:09.512Z,37.17
2023-03-22T02:32:36.739Z,36.58
2023-03-22T02:35:39.090Z,37.55
2023-03-22T02:38:17.684Z,35.55
2023-03-22T02:40:44.521Z,36.22
2023-03-22T02:43:16.985Z,36.63
2023-03-22T02:46:01.420Z,37.08
2023-03-22T02:48:35.119Z,36.00
2023-03-22T02:51:18.197Z,36.85
2023-03-22T02:53:54.034Z,36.58
2023-03-22T02:56:36.191Z,37.30
2023-03-22T02:59:06.333Z,36.92
2023-03-22T03:04:24.751Z,37.30
2023-03-22T03:06:54.356Z,37.05
2023-03-22T03:09:21.877Z,40.00
2023-03-22T03:11:52.028Z,40.53
2023-03-22T03:14:27.015Z,40.60
2023-03-22T03:17:06.887Z,43.25
2023-03-22T03:19:46.006Z,45.72
2023-03-22T03:22:47.466Z,47.83
2023-03-22T03:25:27.289Z,44.42
2023-03-22T03:28:11.561Z,45.03
2023-03-22T03:30:48.217Z,45.92
2023-03-22T03:33:18.931Z,43.63
2023-03-22T03:36:01.214Z,42.95
2023-03-22T03:38:32.003Z,43.58
2023-03-22T03:41:10.028Z,42.20
2023-03-22T03:43:37.645Z,39.88
2023-03-22T03:46:05.422Z,40.72
2023-03-22T03:48:36.053Z,40.53
2023-03-22T03:51:03.541Z,38.83
2023-03-22T03:53:31.313Z,38.28
2023-03-22T03:55:58.374Z,39.20
2023-03-22T03:58:30.549Z,40.08
2023-03-22T04:00:57.454Z,39.53
2023-03-22T04:03:50.899Z,39.15
2023-03-22T04:06:40.514Z,36.67
2023-03-22T04:09:14.709Z,38.15
2023-03-22T04:11:45.396Z,37.90
2023-03-22T04:14:13.975Z,37.10
2023-03-22T04:16:40.922Z,36.25
2023-03-22T04:19:11.483Z,37.50
2023-03-22T04:21:39.257Z,37.95
2023-03-22T04:24:07.559Z,37.25
2023-03-22T04:26:37.655Z,36.65
2023-03-22T04:32:12.524Z,36.85
2023-03-22T04:34:43.180Z,37.55
2023-03-22T04:37:13.934Z,39.65
2023-03-22T04:39:54.607Z,36.17
2023-03-22T04:42:51.542Z,37.25
2023-03-22T04:45:29.374Z,35.67
2023-03-22T04:48:00.513Z,38.72
2023-03-22T04:50:28.395Z,38.17
2023-03-22T04:52:59.794Z,36.58
2023-03-22T04:55:27.772Z,35.40
2023-03-22T04:57:54.950Z,35.97
2023-03-22T05:00:24.180Z,40.05
2023-03-22T05:02:52.231Z,35.50
2023-03-22T05:05:53.577Z,35.05
2023-03-22T05:08:27.278Z,35.47
2023-03-22T05:10:55.908Z,35.95
2023-03-22T05:13:26.559Z,35.20
2023-03-22T05:15:54.293Z,35.33
2023-03-22T05:18:28.812Z,34.88
2023-03-22T05:20:57.532Z,33.63
2023-03-22T05:23:25.017Z,34.03
2023-03-22T05:25:58.419Z,34.92
2023-03-22T05:28:39.881Z,32.90
2023-03-22T05:31:28.738Z,32.55
2023-03-22T05:34:01.745Z,35.42
2023-03-22T05:36:30.409Z,33.13
2023-03-22T05:39:16.121Z,34.40
2023-03-22T05:41:44.163Z,33.25
2023-03-22T05:44:11.344Z,34.58
2023-03-22T05:46:44.743Z,33.83
2023-03-22T05:49:32.457Z,33.25
2023-03-22T05:52:04.519Z,34.05
2023-03-22T05:54:45.751Z,33.47
2023-03-22T05:57:12.741Z,34.40
2023-03-22T05:59:39.550Z,32.10
2023-03-22T06:02:09.147Z,33.95
2023-03-22T06:04:37.024Z,32.35
2023-03-22T06:07:10.443Z,31.10
2023-03-22T06:09:51.399Z,27.67
2023-03-22T06:12:24.857Z,28.33
2023-03-22T06:15:18.282Z,23.52
2023-03-22T06:18:21.079Z,24.88
2023-03-22T06:20:56.329Z,27.48
2023-03-22T06:23:24.455Z,28.40
2023-03-22T06:25:52.081Z,31.10
2023-03-22T06:28:19.447Z,31.10
2023-03-22T06:30:51.944Z,32.88
2023-03-22T06:33:38.201Z,32.55
2023-03-22T06:36:16.489Z,33.70
2023-03-22T06:39:05.639Z,33.50
2023-03-22T06:41:33.186Z,34.13
2023-03-22T06:44:01.266Z,35.92
2023-03-22T06:46:40.471Z,36.95
2023-03-22T06:49:17.188Z,35.00
2023-03-22T06:51:44.482Z,34.25
2023-03-22T06:54:13.424Z,36.95
2023-03-22T06:56:41.083Z,35.58
2023-03-22T06:59:08.247Z,36.92
2023-03-22T07:01:35.395Z,35.88
2023-03-22T07:04:02.446Z,35.97
2023-03-22T07:06:30.701Z,37.85
2023-03-22T07:08:57.598Z,37.10
2023-03-22T07:11:29.889Z,36.55
2023-03-22T07:13:59.460Z,44.35
2023-03-22T07:16:32.978Z,37.47
2023-03-22T07:19:02.173Z,35.75
2023-03-22T07:21:29.057Z,36.15
2023-03-22T07:23:59.802Z,36.20
2023-03-22T07:26:30.754Z,34.10
2023-03-22T07:31:35.969Z,34.28
2023-03-22T07:34:05.873Z,36.30
2023-03-22T07:36:44.480Z,35.13
2023-03-22T07:39:12.715Z,33.70
2023-03-22T07:41:44.072Z,32.45
2023-03-22T08:55:08.459Z,34.80
2023-03-22T08:57:50.566Z,32.90
2023-03-22T09:00:20.598Z,32.45
2023-03-22T09:03:01.275Z,32.97
2023-03-22T09:05:28.219Z,31.08
2023-03-22T09:07:56.611Z,30.85
2023-03-22T09:10:33.460Z,29.92
2023-03-22T09:13:00.736Z,29.75
2023-03-22T09:15:27.696Z,29.55
2023-03-22T09:18:12.480Z,28.88
2023-03-22T09:20:40.548Z,27.42
2023-03-22T09:23:08.322Z,28.43
2023-03-22T09:25:35.507Z,24.63
2023-03-22T09:28:04.241Z,24.90
2023-03-22T09:30:31.306Z,22.50
2023-03-22T09:32:58.303Z,26.40
2023-03-22T09:35:25.201Z,24.17
2023-03-22T09:38:00.017Z,24.13
2023-03-22T09:40:31.966Z,23.33
2023-03-22T09:43:03.231Z,23.92
2023-03-22T09:45:38.748Z,23.17
2023-03-22T09:48:21.890Z,23.60
2023-03-22T09:50:52.939Z,26.70
2023-03-22T09:53:21.353Z,24.73
2023-03-22T09:55:54.600Z,23.33
2023-03-22T09:58:43.146Z,22.55
2023-03-22T10:01:35.522Z,24.50
2023-03-22T10:04:14.687Z,21.95
2023-03-22T10:06:49.669Z,19.93
2023-03-22T10:09:42.516Z,17.77
2023-03-22T10:12:34.988Z,18.05
2023-03-22T10:15:12.382Z,16.98
2023-03-22T10:17:42.296Z,17.17
2023-03-22T10:20:33.354Z,16.33
2023-03-22T10:23:03.489Z,13.70
2023-03-22T10:25:39.750Z,14.25
2023-03-22T10:28:39.832Z,14.15
2023-03-22T10:31:13.289Z,12.63
2023-03-22T10:33:50.582Z,12.45
2023-03-22T10:36:21.277Z,10.13
2023-03-22T10:38:55.775Z,10.60
2023-03-22T10:41:25.947Z,10.40
2023-03-22T10:43:56.775Z,9.25
2023-03-22T10:46:26.627Z,11.38
2023-03-22T10:48:59.675Z,9.40
2023-03-22T10:51:44.976Z,10.10
2023-03-22T10:54:17.990Z,9.90
2023-03-22T10:56:46.180Z,9.98
2023-03-22T10:59:49.170Z,9.30
2023-03-22T11:02:22.392Z,9.52
2023-03-22T11:04:53.124Z,8.45
2023-03-22T11:07:45.909Z,8.30
2023-03-22T11:10:18.952Z,8.40
2023-03-22T11:12:55.482Z,8.45
2023-03-22T11:15:34.768Z,8.75
2023-03-22T11:18:16.049Z,8.90
2023-03-22T11:20:57.262Z,9.02
2023-03-22T11:23:25.132Z,8.95
2023-03-22T11:25:55.793Z,8.52
2023-03-22T11:28:28.020Z,9.18
2023-03-22T11:31:03.095Z,9.27
2023-03-22T11:33:30.777Z,8.60
2023-03-22T11:36:03.687Z,7.82
2023-03-22T11:38:36.757Z,7.50
2023-03-22T11:41:21.171Z,7.80
2023-03-22T11:43:53.915Z,7.53
2023-03-22T11:46:21.863Z,7.30
2023-03-22T11:48:51.992Z,8.02
2023-03-22T11:51:35.329Z,7.80
2023-03-22T11:54:20.929Z,7.55
2023-03-22T11:56:49.383Z,7.35
2023-03-22T11:59:21.464Z,7.18
2023-03-22T12:01:58.789Z,7.28
2023-03-22T12:04:29.822Z,7.45
2023-03-22T12:07:00.673Z,7.28
2023-03-22T12:10:11.218Z,7.35
2023-03-22T12:12:49.607Z,7.63
2023-03-22T12:15:22.518Z,6.93
2023-03-22T12:18:04.929Z,5.60
2023-03-22T12:20:50.719Z,7.05
2023-03-22T12:23:28.138Z,7.20
2023-03-22T12:26:05.223Z,6.45
2023-03-22T12:28:42.734Z,6.45
2023-03-22T12:31:21.947Z,6.90
2023-03-22T12:33:52.769Z,6.28
2023-03-22T12:36:38.303Z,6.88
2023-03-22T12:39:08.392Z,5.82
2023-03-22T12:41:42.702Z,5.60
2023-03-22T12:44:12.709Z,5.85
2023-03-22T12:46:51.543Z,5.20
2023-03-22T12:49:21.835Z,5.40
2023-03-22T12:51:51.753Z,6.15
2023-03-22T12:54:22.373Z,6.22
2023-03-22T12:56:51.370Z,5.55
2023-03-22T12:59:23.730Z,5.13
2023-03-22T13:02:01.308Z,5.20
2023-03-22T13:04:49.727Z,5.35
2023-03-22T13:07:31.687Z,6.00
2023-03-22T13:10:00.192Z,5.68
2023-03-22T13:12:30.815Z,5.25
2023-03-22T13:15:28.419Z,5.35
2023-03-22T13:17:59.202Z,5.53
2023-03-22T13:20:28.371Z,6.15
2023-03-22T13:22:57.487Z,5.75
2023-03-22T13:25:38.682Z,5.78
2023-03-22T13:28:23.582Z,5.30
2023-03-22T13:30:53.667Z,5.72
2023-03-22T13:33:27.270Z,5.38
2023-03-22T13:35:56.943Z,5.63
2023-03-22T13:41:08.029Z,5.68
2023-03-22T13:43:43.496Z,5.63
2023-03-22T13:46:13.299Z,5.50
2023-03-22T13:48:55.419Z,5.03
2023-03-22T13:51:25.782Z,5.50
2023-03-22T13:53:52.540Z,5.43
2023-03-22T13:56:34.025Z,5.45
2023-03-22T13:59:03.953Z,5.22
2023-03-22T14:01:36.988Z,5.10
2023-03-22T14:04:10.829Z,5.50
2023-03-22T14:06:52.644Z,4.65
2023-03-22T14:09:31.894Z,4.57
2023-03-22T14:12:20.859Z,5.43
2023-03-22T14:14:54.948Z,4.90
2023-03-22T14:17:47.729Z,5.22
2023-03-22T14:20:21.151Z,5.20
2023-03-22T14:53:16.786Z,4.93
2023-03-22T14:55:45.629Z,4.72
2023-03-22T15:03:20.409Z,5.15
2023-03-22T15:05:47.576Z,6.15
2023-03-22T15:08:20.177Z,5.82
2023-03-22T15:10:58.980Z,5.45
2023-03-22T15:13:27.031Z,5.57
2023-03-22T15:15:54.669Z,5.35
2023-03-22T15:18:24.894Z,5.50
2023-03-22T15:20:53.210Z,5.20
2023-03-22T15:23:31.756Z,5.47
2023-03-22T15:26:01.078Z,4.60
2023-03-22T15:28:31.577Z,4.60
2023-03-22T15:31:04.134Z,4.63
2023-03-22T15:33:37.633Z,5.72
2023-03-22T15:36:06.762Z,5.13
2023-03-22T15:38:46.668Z,5.03
2023-03-22T15:41:26.432Z,4.90
2023-03-22T15:44:04.819Z,4.40
2023-03-22T15:46:48.500Z,4.53
2023-03-22T15:49:19.584Z,4.90
2023-03-22T15:51:47.245Z,4.30
2023-03-22T15:54:19.913Z,5.97
2023-03-22T15:56:49.735Z,5.72
2023-03-22T15:59:31.732Z,5.85
2023-03-22T16:02:00.747Z,6.03
2023-03-22T16:04:34.753Z,6.50
2023-03-22T16:07:02.213Z,5.80
2023-03-22T16:09:29.140Z,5.88
2023-03-22T16:11:56.180Z,6.88
2023-03-22T16:14:23.203Z,6.43
2023-03-22T16:16:50.228Z,6.25
2023-03-22T16:19:17.358Z,6.20
2023-03-22T16:21:44.370Z,6.18
2023-03-22T16:24:12.831Z,6.53
2023-03-22T16:26:40.182Z,6.90
2023-03-22T16:29:07.134Z,6.10
2023-03-22T16:31:34.110Z,5.45
2023-03-22T16:34:01.092Z,6.10
2023-03-22T16:36:28.332Z,6.18
2023-03-22T16:38:55.440Z,5.85
2023-03-22T16:41:29.430Z,5.88
2023-03-22T16:43:58.851Z,8.10
2023-03-22T16:46:28.509Z,5.68
2023-03-22T16:48:55.553Z,6.80
2023-03-22T16:51:30.802Z,6.03
2023-03-22T16:53:58.999Z,6.40
2023-03-22T16:56:30.802Z,6.30
2023-03-22T16:58:57.792Z,7.43
2023-03-22T17:01:26.093Z,7.32
2023-03-22T17:03:53.452Z,7.70
2023-03-22T17:06:24.077Z,8.50
2023-03-22T17:08:55.333Z,8.68
2023-03-22T17:11:29.755Z,9.45
2023-03-22T17:13:59.066Z,8.52
2023-03-22T17:16:27.790Z,8.80
2023-03-22T17:18:57.248Z,9.15
2023-03-22T17:21:24.343Z,8.50
2023-03-22T17:23:51.619Z,7.70
2023-03-22T17:26:18.766Z,8.38
2023-03-22T17:28:48.064Z,8.50
2023-03-22T17:31:17.543Z,9.13
2023-03-22T17:33:45.295Z,9.25
2023-03-22T17:36:13.509Z,12.13
2023-03-22T17:38:53.277Z,11.25
2023-03-22T17:41:27.842Z,9.77
2023-03-22T17:43:54.711Z,9.02
2023-03-22T17:51:18.484Z,9.68
2023-03-22T17:54:35.497Z,10.05
2023-03-22T17:57:01.054Z,10.88
2023-03-22T17:59:38.134Z,9.80
2023-03-22T18:02:50.931Z,9.45
2023-03-22T18:05:28.149Z,9.75
2023-03-22T18:08:27.266Z,8.98
2023-03-22T18:10:56.256Z,9.75
2023-03-22T18:13:28.140Z,9.65
2023-03-22T18:16:03.389Z,10.25
2023-03-22T18:18:34.158Z,11.63
2023-03-22T18:21:42.444Z,9.52
2023-03-22T18:24:25.133Z,10.43
2023-03-22T18:30:12.341Z,9.40
2023-03-22T18:33:03.830Z,10.10
2023-03-22T18:35:54.150Z,10.45
2023-03-22T18:39:02.984Z,8.98
2023-03-22T18:41:46.218Z,9.30
2023-03-22T18:44:26.470Z,9.93
2023-03-22T18:47:09.356Z,9.50
2023-03-22T18:49:58.625Z,8.55
2023-03-22T18:53:17.873Z,9.80
2023-03-22T18:55:52.241Z,8.98
2023-03-22T18:58:39.307Z,9.85
2023-03-22T19:01:13.063Z,9.85
2023-03-22T19:03:46.042Z,10.23
2023-03-22T19:07:01.053Z,9.98
2023-03-22T19:09:45.777Z,11.00
2023-03-22T19:12:28.522Z,10.70
2023-03-22T19:15:31.822Z,10.20
2023-03-22T19:18:32.293Z,9.95
2023-03-22T19:24:10.230Z,9.40
2023-03-22T19:26:58.488Z,9.90
2023-03-22T19:29:37.208Z,8.27
2023-03-22T19:32:04.721Z,9.10
2023-03-22T19:34:50.358Z,9.70
2023-03-22T19:37:21.340Z,8.65
2023-03-22T19:42:44.551Z,8.80
2023-03-22T19:45:26.367Z,9.70
2023-03-22T19:48:05.379Z,10.05
2023-03-22T19:50:39.079Z,9.50
2023-03-22T19:54:08.458Z,9.65
2023-03-22T19:56:18.730Z,10.13
2023-03-22T19:59:03.352Z,9.07
2023-03-22T20:01:40.222Z,9.68
2023-03-22T20:04:07.226Z,8.98
2023-03-22T20:06:55.312Z,8.68
2023-03-22T20:10:02.153Z,9.13
2023-03-22T20:12:38.917Z,8.90
2023-03-22T20:15:37.614Z,9.77
2023-03-22T20:18:09.705Z,8.88
2023-03-22T20:20:36.620Z,9.77
2023-03-22T20:23:22.284Z,7.72
2023-03-22T20:26:09.701Z,10.38
2023-03-22T20:29:02.758Z,10.75
2023-03-22T20:31:59.976Z,10.43
2023-03-22T20:35:04.697Z,9.65
2023-03-22T20:37:38.728Z,9.70
2023-03-22T20:40:12.290Z,8.57
2023-03-22T20:43:35.725Z,9.50
2023-03-22T20:46:57.255Z,10.43
2023-03-22T20:49:27.356Z,9.70
2023-03-22T20:52:03.707Z,10.38
2023-03-22T20:54:30.789Z,10.30
2023-03-22T20:56:57.899Z,9.25
2023-03-22T20:59:24.854Z,9.70
2023-03-22T21:01:53.567Z,9.45
2023-03-22T21:04:20.962Z,9.05
2023-03-22T21:06:49.120Z,9.20
2023-03-22T21:09:16.667Z,8.93
2023-03-22T21:11:43.834Z,8.90
2023-03-22T21:14:11.248Z,8.70
2023-03-22T21:16:44.063Z,9.00
2023-03-22T21:19:12.034Z,9.50
2023-03-22T21:21:40.075Z,9.27
2023-03-22T21:24:07.437Z,9.85
2023-03-22T21:26:34.492Z,9.45
2023-03-22T21:29:01.622Z,9.10
2023-03-22T21:31:28.708Z,8.57
2023-03-22T21:33:55.709Z,8.75
2023-03-22T21:36:22.640Z,9.40
2023-03-22T21:38:54.925Z,8.75
2023-03-22T21:41:24.477Z,9.20
2023-03-22T21:43:55.395Z,8.63
2023-03-22T21:46:24.218Z,8.32
2023-03-22T21:48:54.294Z,8.52
2023-03-22T21:53:56.864Z,8.40
2023-03-22T21:56:24.788Z,8.63
2023-03-22T21:58:52.330Z,8.57
2023-03-22T22:01:19.984Z,8.65
2023-03-22T22:03:48.551Z,8.18
2023-03-22T22:06:15.681Z,9.98
2023-03-22T22:08:42.636Z,9.45
2023-03-22T22:11:10.149Z,8.73
2023-03-22T22:13:38.456Z,8.65
2023-03-22T22:16:08.352Z,10.77
2023-03-22T22:18:39.232Z,9.40
2023-03-22T22:21:09.289Z,9.13
2023-03-22T22:23:41.929Z,9.45
2023-03-22T22:26:10.323Z,9.60
2023-03-22T22:28:38.599Z,8.50
2023-03-22T22:31:10.266Z,8.73
2023-03-22T22:33:39.979Z,8.77
2023-03-22T22:36:10.491Z,8.95
2023-03-22T22:38:38.884Z,8.40
2023-03-22T22:41:11.641Z,9.07
2023-03-22T22:43:38.837Z,9.40
2023-03-22T22:46:06.304Z,8.85
2023-03-22T22:48:34.121Z,8.68
2023-03-22T22:51:06.582Z,8.90
2023-03-22T22:53:34.339Z,9.07
2023-03-22T22:56:02.263Z,9.60
2023-03-22T22:58:29.578Z,9.48
2023-03-22T23:00:56.724Z,8.60
2023-03-22T23:03:26.542Z,9.70
2023-03-22T23:05:53.682Z,9.55
2023-03-22T23:08:20.719Z,8.98
2023-03-22T23:10:52.624Z,9.15
2023-03-22T23:13:20.692Z,9.95
2023-03-22T23:15:52.943Z,10.43
2023-03-22T23:18:22.880Z,10.55
2023-03-22T23:20:50.726Z,10.57
2023-03-22T23:23:20.597Z,10.50
2023-03-22T23:25:48.419Z,11.30
2023-03-22T23:28:17.627Z,10.13
2023-03-22T23:30:44.572Z,9.70
2023-03-22T23:33:12.765Z,8.60
2023-03-22T23:35:43.003Z,8.90
2023-03-22T23:38:10.860Z,9.38
2023-03-22T23:40:38.155Z,9.52
2023-03-22T23:43:05.097Z,9.52
2023-03-22T23:45:32.273Z,10.48
2023-03-22T23:47:59.302Z,10.25
2023-03-22T23:50:26.199Z,9.40
2023-03-22T23:52:53.081Z,9.02
2023-03-22T23:55:22.226Z,9.00
2023-03-22T23:57:49.124Z,8.45
